Time;durP1;ratioP1;P1;durP2;ratioP2;P2;SDS_P1;SDS_P2;PMS_P1;PMS_P2;Temp;Humidity;BMP_temperature;BMP_pressure;BME280_temperature;BME280_humidity;BME280_pressure;Samples;Min_cycle;Max_cycle;Signal;HPM_P1;HPM_P2
2023/05/18 00:02:15;;;;;;;5.55;4.13;;;25.40;99.90;;;;;;5035723;28;20604;-57
2023/05/18 00:04:41;;;;;;;7.28;3.80;;;25.40;99.90;;;;;;5035391;28;20048;-57
2023/05/18 00:07:08;;;;;;;6.07;3.75;;;25.40;99.90;;;;;;5035397;28;20461;-58
2023/05/18 00:09:35;;;;;;;6.18;3.88;;;25.40;99.90;;;;;;5035326;28;20041;-58
2023/05/18 00:12:02;;;;;;;5.88;3.63;;;25.40;99.90;;;;;;5035342;28;20071;-58
2023/05/18 00:14:28;;;;;;;6.28;3.45;;;25.40;99.90;;;;;;5035548;28;20090;-57
2023/05/18 00:16:54;;;;;;;5.93;3.80;;;25.40;99.90;;;;;;5035403;28;20021;-58
2023/05/18 00:19:22;;;;;;;5.85;3.38;;;25.40;99.90;;;;;;5035204;28;20361;-58
2023/05/18 00:21:50;;;;;;;6.35;3.67;;;25.40;99.90;;;;;;5035261;28;20021;-59
2023/05/18 00:24:17;;;;;;;6.35;3.22;;;25.40;99.90;;;;;;5035241;28;20423;-58
2023/05/18 00:26:45;;;;;;;6.00;3.20;;;25.40;99.90;;;;;;5035309;28;20357;-58
2023/05/18 00:29:11;;;;;;;6.28;3.50;;;25.40;99.90;;;;;;5033893;28;20021;-59
2023/05/18 00:31:38;;;;;;;6.20;3.38;;;25.40;99.90;;;;;;5035271;28;20056;-59
2023/05/18 00:34:05;;;;;;;6.78;3.15;;;25.40;99.90;;;;;;5035104;28;20096;-57
2023/05/18 00:36:31;;;;;;;5.00;3.35;;;25.40;99.90;;;;;;5035205;28;20501;-58
2023/05/18 00:38:57;;;;;;;5.18;3.35;;;25.40;99.90;;;;;;5035064;28;20022;-59
2023/05/18 00:41:25;;;;;;;7.05;3.28;;;25.40;99.90;;;;;;5035105;28;20013;-58
2023/05/18 00:43:54;;;;;;;6.15;3.83;;;25.40;99.90;;;;;;5034803;28;20087;-57
2023/05/18 00:46:21;;;;;;;4.70;3.50;;;25.40;99.90;;;;;;5033645;28;20018;-58
2023/05/18 00:48:48;;;;;;;6.10;3.40;;;25.40;99.90;;;;;;5033235;28;20041;-58
2023/05/18 00:51:14;;;;;;;6.05;3.65;;;25.40;99.90;;;;;;5035073;28;20351;-58
2023/05/18 00:53:41;;;;;;;5.78;3.65;;;25.40;99.90;;;;;;5034786;28;20064;-57
2023/05/18 00:56:07;;;;;;;6.78;4.45;;;25.40;99.90;;;;;;5034948;28;20025;-58
2023/05/18 00:58:33;;;;;;;5.38;4.00;;;25.40;99.90;;;;;;5033033;28;20037;-58
2023/05/18 01:01:01;;;;;;;5.82;3.90;;;25.40;99.90;;;;;;5047293;22;20057;-55
2023/05/18 01:03:29;;;;;;;5.20;3.75;;;25.40;99.90;;;;;;5034666;28;20018;-53
2023/05/18 01:05:57;;;;;;;5.25;3.70;;;25.40;99.90;;;;;;5034699;28;20520;-55
2023/05/18 01:08:25;;;;;;;7.07;4.20;;;25.40;99.90;;;;;;5032758;28;20048;-53
2023/05/18 01:11:00;;;;;;;6.40;3.97;;;25.40;99.90;;;;;;5034582;28;20026;-54
2023/05/18 01:13:38;;;;;;;6.28;3.83;;;25.40;99.90;;;;;;5034593;28;20029;-55
2023/05/18 01:16:09;;;;;;;5.18;3.80;;;25.30;99.90;;;;;;5034566;28;20088;-55
2023/05/18 01:18:54;;;;;;;5.28;3.55;;;25.40;99.90;;;;;;5034323;28;20076;-55
2023/05/18 01:21:56;;;;;;;4.68;3.00;;;25.40;99.90;;;;;;5034522;28;20017;-53
2023/05/18 01:24:34;;;;;;;3.92;3.13;;;25.40;99.90;;;;;;5023065;28;20022;-55
2023/05/18 01:27:02;;;;;;;4.75;3.83;;;25.30;99.90;;;;;;5034318;28;20477;-53
2023/05/18 01:29:29;;;;;;;5.90;3.50;;;25.30;99.90;;;;;;5034288;28;20068;-54
2023/05/18 01:31:57;;;;;;;5.05;3.10;;;25.40;99.90;;;;;;5034073;28;20473;-56
2023/05/18 01:34:22;;;;;;;5.82;3.33;;;25.30;99.90;;;;;;5033950;28;20048;-56
2023/05/18 01:36:48;;;;;;;5.20;3.47;;;25.40;99.90;;;;;;5034032;28;20025;-56
2023/05/18 01:39:15;;;;;;;4.80;3.28;;;25.30;99.90;;;;;;5033768;28;20421;-56
2023/05/18 01:41:55;;;;;;;3.75;2.78;;;25.30;99.90;;;;;;5033945;28;20192;-54
2023/05/18 01:44:32;;;;;;;5.55;3.30;;;25.30;99.90;;;;;;5033758;28;20100;-54
2023/05/18 01:46:58;;;;;;;4.90;3.45;;;25.30;99.90;;;;;;5033726;28;20029;-56
2023/05/18 01:49:42;;;;;;;4.88;3.30;;;25.30;99.90;;;;;;5033408;28;20033;-55
2023/05/18 01:52:19;;;;;;;5.53;3.38;;;25.30;99.90;;;;;;5033801;28;20036;-55
2023/05/18 01:54:53;;;;;;;4.63;3.33;;;25.30;99.90;;;;;;5021872;28;20055;-55
2023/05/18 01:57:23;;;;;;;5.47;3.45;;;25.30;99.90;;;;;;5033407;28;20034;-55
2023/05/18 01:59:50;;;;;;;3.80;3.17;;;25.30;99.90;;;;;;5033790;28;20492;-55
2023/05/18 02:02:16;;;;;;;5.85;3.63;;;25.30;99.90;;;;;;5033992;28;20140;-54
2023/05/18 02:04:42;;;;;;;4.90;3.00;;;25.30;99.90;;;;;;5033834;28;20087;-54
2023/05/18 02:07:08;;;;;;;4.47;2.95;;;25.30;99.90;;;;;;5033441;28;20572;-55
2023/05/18 02:09:34;;;;;;;7.40;4.10;;;25.30;99.90;;;;;;5033320;28;20113;-54
2023/05/18 02:11:59;;;;;;;6.57;4.32;;;25.30;99.90;;;;;;5033367;28;20112;-55
2023/05/18 02:14:25;;;;;;;4.03;2.97;;;25.30;99.90;;;;;;5033548;28;20056;-55
2023/05/18 02:16:53;;;;;;;6.03;3.95;;;25.30;99.90;;;;;;5015751;28;20022;-54
2023/05/18 02:19:21;;;;;;;4.07;3.15;;;25.30;99.90;;;;;;5033178;28;20105;-55
2023/05/18 02:21:47;;;;;;;4.88;3.33;;;25.30;99.90;;;;;;5033324;28;20029;-54
2023/05/18 02:24:13;;;;;;;6.22;3.42;;;25.30;99.90;;;;;;5033259;28;20432;-55
2023/05/18 02:26:40;;;;;;;6.15;3.80;;;25.30;99.90;;;;;;5033150;28;20558;-54
2023/05/18 02:29:08;;;;;;;5.25;3.83;;;25.30;99.90;;;;;;5032921;28;20030;-54
2023/05/18 02:31:34;;;;;;;5.57;3.90;;;25.30;99.90;;;;;;5033117;28;20025;-54
2023/05/18 02:34:00;;;;;;;6.22;3.88;;;25.30;99.90;;;;;;5032924;28;20021;-55
2023/05/18 02:36:26;;;;;;;5.10;3.53;;;25.30;99.90;;;;;;5031807;28;20033;-53
2023/05/18 02:38:52;;;;;;;6.63;4.00;;;25.30;99.90;;;;;;5032928;28;20045;-53
2023/05/18 02:41:18;;;;;;;6.15;3.50;;;25.30;99.90;;;;;;5032981;28;20473;-55
2023/05/18 02:43:43;;;;;;;6.18;3.83;;;25.30;99.90;;;;;;5026148;28;20069;-55
2023/05/18 02:46:09;;;;;;;5.80;3.85;;;25.30;99.90;;;;;;5031932;28;20028;-58
2023/05/18 02:48:35;;;;;;;5.82;3.75;;;25.30;99.90;;;;;;5031709;28;20018;-55
2023/05/18 02:51:01;;;;;;;5.50;3.63;;;25.30;99.90;;;;;;5032747;28;20045;-53
2023/05/18 02:53:26;;;;;;;5.32;3.72;;;25.30;99.90;;;;;;5032955;28;20032;-53
2023/05/18 02:56:02;;;;;;;5.60;3.55;;;25.20;99.90;;;;;;5032732;28;20048;-53
2023/05/18 02:58:27;;;;;;;6.20;3.88;;;25.20;99.90;;;;;;5030969;28;20428;-53
2023/05/18 03:00:58;;;;;;;5.10;3.63;;;25.20;99.90;;;;;;5032982;28;20076;-53
2023/05/18 03:03:24;;;;;;;4.53;3.03;;;25.20;99.90;;;;;;5032769;28;20017;-53
2023/05/18 03:05:51;;;;;;;5.35;3.40;;;25.20;99.90;;;;;;5032440;28;20495;-53
2023/05/18 03:08:19;;;;;;;5.72;3.53;;;25.20;99.90;;;;;;5032745;28;20157;-54
2023/05/18 03:10:45;;;;;;;3.78;3.22;;;25.30;99.90;;;;;;5031112;28;20033;-53
2023/05/18 03:13:10;;;;;;;5.05;3.70;;;25.20;99.90;;;;;;5032947;28;20488;-53
2023/05/18 03:15:38;;;;;;;5.40;3.83;;;25.20;99.90;;;;;;5032619;28;20029;-53
2023/05/18 03:18:04;;;;;;;5.35;3.40;;;25.20;99.90;;;;;;5032561;28;20017;-53
2023/05/18 03:20:30;;;;;;;5.88;3.58;;;25.20;99.90;;;;;;5032576;28;20029;-52
2023/05/18 03:22:56;;;;;;;6.07;3.78;;;25.20;99.90;;;;;;5032558;28;20029;-53
2023/05/18 03:25:24;;;;;;;6.93;3.83;;;25.20;99.90;;;;;;5032674;28;20021;-55
2023/05/18 03:27:51;;;;;;;;;;;25.20;99.90;;;;;;5032994;28;20029;-53
2023/05/18 03:30:17;;;;;;;5.35;3.63;;;25.20;99.90;;;;;;5033436;28;19960;-54
2023/05/18 03:32:43;;;;;;;5.55;3.45;;;25.20;99.90;;;;;;5036472;28;20079;-53
2023/05/18 03:35:09;;;;;;;6.05;3.95;;;25.20;99.90;;;;;;5036133;28;20493;-54
2023/05/18 03:37:35;;;;;;;5.50;3.83;;;25.20;99.90;;;;;;5022937;28;20017;-54
2023/05/18 03:40:09;;;;;;;6.05;4.20;;;25.20;99.90;;;;;;5036345;28;20031;-56
2023/05/18 03:42:35;;;;;;;5.28;3.80;;;25.20;99.90;;;;;;5036331;28;20026;-56
2023/05/18 03:45:01;;;;;;;5.70;3.97;;;25.20;99.90;;;;;;5035980;28;20060;-55
2023/05/18 03:47:28;;;;;;;6.00;4.30;;;25.20;99.90;;;;;;5036223;28;20018;-52
2023/05/18 03:49:54;;;;;;;4.07;3.30;;;25.20;99.90;;;;;;5035734;28;20084;-53
2023/05/18 03:52:21;;;;;;;7.78;4.43;;;25.20;99.90;;;;;;5034860;28;20077;-52
2023/05/18 03:54:50;;;;;;;5.87;4.43;;;25.20;99.90;;;;;;5035869;28;20354;-53
2023/05/18 03:57:16;;;;;;;5.45;3.60;;;25.20;99.90;;;;;;5035616;28;20030;-54
2023/05/18 03:59:43;;;;;;;5.60;3.95;;;25.20;99.90;;;;;;5036032;28;20072;-55
2023/05/18 04:02:10;;;;;;;6.55;4.30;;;25.20;99.90;;;;;;5035961;28;20037;-55
2023/05/18 04:04:40;;;;;;;5.28;3.60;;;25.20;99.90;;;;;;5035814;28;20022;-55
2023/05/18 04:07:07;;;;;;;7.25;4.15;;;25.20;99.90;;;;;;5027815;28;20021;-55
2023/05/18 04:09:33;;;;;;;5.43;3.67;;;25.20;99.90;;;;;;5035679;28;20038;-56
2023/05/18 04:11:59;;;;;;;9.30;4.00;;;25.20;99.90;;;;;;5035094;28;20026;-54
2023/05/18 04:14:26;;;;;;;6.80;3.75;;;25.10;99.90;;;;;;5035500;28;20024;-53
2023/05/18 04:16:53;;;;;;;4.43;3.20;;;25.10;99.90;;;;;;5035657;28;20029;-54
2023/05/18 04:19:20;;;;;;;4.53;3.05;;;25.20;99.90;;;;;;5035505;28;20496;-54
2023/05/18 04:21:47;;;;;;;4.78;3.03;;;25.10;99.90;;;;;;5035263;28;20037;-55
2023/05/18 04:24:13;;;;;;;7.10;3.28;;;25.10;99.90;;;;;;5035154;28;20025;-53
2023/05/18 04:26:41;;;;;;;3.70;2.65;;;25.10;99.90;;;;;;5035478;28;20017;-51
2023/05/18 04:29:09;;;;;;;3.88;2.47;;;25.10;99.90;;;;;;5033893;28;20018;-50
2023/05/18 04:31:41;;;;;;;3.25;2.50;;;25.10;99.90;;;;;;5035328;28;20528;-51
2023/05/18 04:34:07;;;;;;;2.47;2.20;;;25.10;99.90;;;;;;5035126;28;20426;-51
2023/05/18 04:36:33;;;;;;;3.92;2.53;;;25.10;99.90;;;;;;5033922;28;20117;-52
2023/05/18 04:39:02;;;;;;;2.80;1.98;;;25.10;99.90;;;;;;5034484;28;20026;-50
2023/05/18 04:41:28;;;;;;;2.25;1.80;;;25.10;99.90;;;;;;5033865;28;20040;-57
2023/05/18 04:43:54;;;;;;;5.00;2.08;;;25.00;99.90;;;;;;5034658;28;20026;-54
2023/05/18 04:46:23;;;;;;;5.43;2.80;;;25.00;99.90;;;;;;5034792;28;20075;-52
2023/05/18 04:48:48;;;;;;;8.65;2.85;;;25.00;99.90;;;;;;5035027;28;20021;-53
2023/05/18 04:51:20;;;;;;;13.27;3.25;;;25.00;99.90;;;;;;5034655;28;20117;-53
2023/05/18 04:53:48;;;;;;;7.28;2.13;;;25.00;99.90;;;;;;5035035;28;20017;-52
2023/05/18 04:56:16;;;;;;;5.68;2.67;;;25.00;99.90;;;;;;5034588;28;20026;-52
2023/05/18 04:58:44;;;;;;;7.60;3.22;;;25.00;99.90;;;;;;5034545;28;20026;-51
2023/05/18 05:01:14;;;;;;;7.22;2.20;;;25.00;99.90;;;;;;5034178;28;20038;-52
2023/05/18 05:03:41;;;;;;;6.05;2.22;;;25.00;99.90;;;;;;5034744;28;20029;-54
2023/05/18 05:06:07;;;;;;;3.60;2.20;;;25.00;99.90;;;;;;5033122;28;20091;-52
2023/05/18 05:08:33;;;;;;;5.07;2.13;;;25.00;99.90;;;;;;5034707;28;20029;-53
2023/05/18 05:11:00;;;;;;;8.93;2.25;;;25.00;99.90;;;;;;5034429;28;20115;-54
2023/05/18 05:13:26;;;;;;;6.55;2.58;;;25.00;99.90;;;;;;5034351;28;20553;-53
2023/05/18 05:15:52;;;;;;;5.35;2.38;;;25.00;99.90;;;;;;5034380;28;20029;-53
2023/05/18 05:18:18;;;;;;;3.40;1.70;;;25.00;99.90;;;;;;5034397;28;20026;-52
2023/05/18 05:20:43;;;;;;;7.82;2.03;;;25.00;99.90;;;;;;5034469;28;20040;-54
2023/05/18 05:23:09;;;;;;;7.80;2.92;;;25.00;99.90;;;;;;5034157;28;20040;-54
2023/05/18 05:25:35;;;;;;;5.93;2.22;;;25.00;99.90;;;;;;5034198;28;20028;-53
2023/05/18 05:28:01;;;;;;;38.13;4.13;;;25.00;99.90;;;;;;5034148;28;20025;-53
2023/05/18 05:30:27;;;;;;;4.05;2.15;;;25.00;99.90;;;;;;5033867;28;20176;-55
2023/05/18 05:32:52;;;;;;;7.63;2.75;;;25.00;99.90;;;;;;5034225;28;20017;-53
2023/05/18 05:35:18;;;;;;;4.03;1.92;;;25.00;99.90;;;;;;5032566;28;20029;-54
2023/05/18 05:37:44;;;;;;;4.75;2.30;;;25.00;99.90;;;;;;5033854;28;20024;-53
2023/05/18 05:40:10;;;;;;;5.70;2.20;;;25.00;99.90;;;;;;5033755;28;20018;-53
2023/05/18 05:42:36;;;;;;;4.13;2.33;;;25.00;99.90;;;;;;5033769;28;20024;-54
2023/05/18 05:45:02;;;;;;;4.43;2.17;;;25.00;99.90;;;;;;5033956;28;20084;-54
2023/05/18 05:47:28;;;;;;;4.20;2.33;;;25.00;99.90;;;;;;5033976;28;20032;-54
2023/05/18 05:49:54;;;;;;;5.45;2.50;;;25.00;99.90;;;;;;5033504;28;20083;-54
2023/05/18 05:52:20;;;;;;;3.45;2.10;;;25.00;99.90;;;;;;5033643;28;20014;-52
2023/05/18 05:54:46;;;;;;;3.63;2.08;;;25.00;99.90;;;;;;5033273;28;20373;-53
2023/05/18 05:57:11;;;;;;;5.50;1.85;;;25.00;99.90;;;;;;5033409;28;20428;-53
2023/05/18 05:59:37;;;;;;;8.68;2.38;;;25.00;99.90;;;;;;5033591;28;20029;-52
2023/05/18 06:02:03;;;;;;;3.20;1.98;;;25.00;99.90;;;;;;5033287;28;20132;-54
2023/05/18 06:04:29;;;;;;;3.58;2.10;;;25.00;99.90;;;;;;5033623;28;20053;-54
2023/05/18 06:06:54;;;;;;;3.38;2.25;;;25.00;99.90;;;;;;5033441;28;20025;-51
2023/05/18 06:09:20;;;;;;;5.47;2.25;;;25.00;99.90;;;;;;5033357;28;20026;-52
2023/05/18 06:11:46;;;;;;;7.65;2.28;;;25.00;99.90;;;;;;5033329;28;20127;-52
2023/05/18 06:14:12;;;;;;;2.15;1.80;;;25.00;99.90;;;;;;5033360;28;20485;-54
2023/05/18 06:16:38;;;;;;;5.20;2.08;;;25.00;99.90;;;;;;5033148;28;20021;-52
2023/05/18 06:19:03;;;;;;;4.15;2.30;;;25.00;99.90;;;;;;5033029;28;20013;-52
2023/05/18 06:21:30;;;;;;;2.17;1.85;;;25.00;99.90;;;;;;5033230;28;20048;-53
2023/05/18 06:23:56;;;;;;;3.10;1.80;;;25.00;99.90;;;;;;5033052;28;20100;-53
2023/05/18 06:26:22;;;;;;;2.88;1.58;;;25.00;99.90;;;;;;5033272;28;20104;-53
2023/05/18 06:28:48;;;;;;;3.38;1.77;;;25.00;99.90;;;;;;5033090;28;20014;-53
2023/05/18 06:31:14;;;;;;;5.00;3.17;;;25.00;99.90;;;;;;5033100;28;20068;-54
2023/05/18 06:33:40;;;;;;;3.55;2.10;;;25.00;99.90;;;;;;5032833;28;20025;-53
2023/05/18 06:36:06;;;;;;;3.00;2.08;;;25.00;99.90;;;;;;5033106;28;20032;-53
2023/05/18 06:38:32;;;;;;;4.97;2.28;;;25.00;99.90;;;;;;5031836;28;20037;-54
2023/05/18 06:40:58;;;;;;;3.05;2.47;;;25.00;99.90;;;;;;5031701;28;20065;-55
2023/05/18 06:43:27;;;;;;;5.65;2.70;;;25.00;99.90;;;;;;5031674;28;20040;-53
2023/05/18 06:45:54;;;;;;;4.05;2.33;;;25.00;99.90;;;;;;5033025;28;20478;-52
2023/05/18 06:48:22;;;;;;;2.30;1.90;;;25.00;99.90;;;;;;5032960;28;20474;-52
2023/05/18 06:50:48;;;;;;;4.35;2.58;;;25.00;99.90;;;;;;5032681;28;20124;-52
2023/05/18 06:53:14;;;;;;;5.53;2.08;;;25.00;99.90;;;;;;5032658;28;20053;-52
2023/05/18 06:55:40;;;;;;;3.63;2.03;;;25.00;99.90;;;;;;5031579;28;20067;-52
2023/05/18 06:58:05;;;;;;;3.45;2.25;;;25.00;99.90;;;;;;5032826;28;20030;-52
2023/05/18 07:00:32;;;;;;;4.97;2.45;;;25.00;99.90;;;;;;5032497;28;20025;-53
2023/05/18 07:02:57;;;;;;;3.83;2.45;;;25.00;99.90;;;;;;5032988;28;20021;-54
2023/05/18 07:05:23;;;;;;;4.70;2.25;;;25.00;99.90;;;;;;5034017;28;20381;-51
2023/05/18 07:07:49;;;;;;;3.33;2.13;;;25.00;99.90;;;;;;5036863;28;20442;-56
2023/05/18 07:10:15;;;;;;;4.80;2.08;;;25.00;99.90;;;;;;5036861;28;20112;-54
2023/05/18 07:12:41;;;;;;;6.85;2.00;;;25.00;99.90;;;;;;5036828;28;20165;-53
2023/05/18 07:15:07;;;;;;;5.45;2.08;;;25.00;99.90;;;;;;5036698;28;20025;-53
2023/05/18 07:17:32;;;;;;;5.10;2.22;;;25.00;99.90;;;;;;5036686;28;20053;-53
2023/05/18 07:19:58;;;;;;;4.28;2.33;;;25.00;99.90;;;;;;5036681;28;20441;-53
2023/05/18 07:22:24;;;;;;;4.25;2.40;;;25.00;99.90;;;;;;5036538;28;20029;-54
2023/05/18 07:24:50;;;;;;;4.82;2.00;;;25.00;99.90;;;;;;5036675;28;20026;-54
2023/05/18 07:27:15;;;;;;;3.50;2.10;;;25.00;99.90;;;;;;5036359;28;20041;-54
2023/05/18 07:29:41;;;;;;;4.32;2.13;;;25.00;99.90;;;;;;5018538;28;20048;-54
2023/05/18 07:32:07;;;;;;;6.35;2.20;;;25.00;99.90;;;;;;5036269;28;20025;-54
2023/05/18 07:34:33;;;;;;;7.30;3.40;;;25.00;99.90;;;;;;5036370;28;20026;-54
2023/05/18 07:36:58;;;;;;;3.22;2.13;;;25.00;99.90;;;;;;5036356;28;20493;-55
2023/05/18 07:39:27;;;;;;;3.47;2.00;;;25.00;99.90;;;;;;5036332;28;20029;-54
2023/05/18 07:41:54;;;;;;;4.95;2.60;;;25.00;99.90;;;;;;5036151;28;20063;-54
2023/05/18 07:44:20;;;;;;;2.60;1.85;;;25.00;99.90;;;;;;5036164;28;20013;-54
2023/05/18 07:46:46;;;;;;;3.85;2.33;;;25.00;99.90;;;;;;5036246;28;20389;-56
2023/05/18 07:49:11;;;;;;;5.30;2.25;;;25.00;99.90;;;;;;5036137;28;20643;-56
2023/05/18 07:51:38;;;;;;;4.68;2.30;;;25.00;99.90;;;;;;5036202;28;20112;-54
2023/05/18 07:54:04;;;;;;;4.60;2.45;;;25.10;99.90;;;;;;5034634;28;20025;-55
2023/05/18 07:56:30;;;;;;;3.13;2.13;;;25.10;99.90;;;;;;5036084;28;20025;-55
2023/05/18 07:58:56;;;;;;;2.97;2.13;;;25.10;99.90;;;;;;5035952;28;20044;-54
2023/05/18 08:01:26;;;;;;;2.80;2.05;;;25.00;99.90;;;;;;5030671;28;20420;-54
2023/05/18 08:03:53;;;;;;;2.30;1.90;;;25.10;99.90;;;;;;5035607;28;20492;-54
2023/05/18 08:06:19;;;;;;;6.25;2.67;;;25.10;99.90;;;;;;5035467;28;20519;-54
2023/05/18 08:08:45;;;;;;;3.00;2.13;;;25.10;99.90;;;;;;5035832;28;20048;-54
2023/05/18 08:11:11;;;;;;;3.80;2.28;;;25.10;99.90;;;;;;5035385;28;20435;-54
2023/05/18 08:13:37;;;;;;;5.72;2.60;;;25.10;99.90;;;;;;5035704;28;20025;-54
2023/05/18 08:16:03;;;;;;;4.68;2.85;;;25.10;99.90;;;;;;5033891;28;20097;-54
2023/05/18 08:18:29;;;;;;;4.22;2.58;;;25.10;99.90;;;;;;5035659;28;20025;-54
2023/05/18 08:20:54;;;;;;;3.92;2.55;;;25.10;99.90;;;;;;5035447;28;20052;-54
2023/05/18 08:23:22;;;;;;;5.75;2.90;;;25.10;99.90;;;;;;5035791;28;20025;-54
2023/05/18 08:25:48;;;;;;;4.32;2.65;;;25.10;99.90;;;;;;5035389;28;20056;-53
2023/05/18 08:28:13;;;;;;;5.03;3.00;;;25.10;99.90;;;;;;5035532;28;20029;-55
2023/05/18 08:30:39;;;;;;;4.90;2.97;;;25.20;99.90;;;;;;5035452;28;20026;-52
2023/05/18 08:33:05;;;;;;;4.30;2.90;;;25.20;99.90;;;;;;5035292;28;20420;-53
2023/05/18 08:35:31;;;;;;;3.83;3.05;;;25.20;99.90;;;;;;5033604;28;20112;-53
2023/05/18 08:37:57;;;;;;;4.15;2.80;;;25.20;99.90;;;;;;5035466;28;20068;-53
2023/05/18 08:40:31;;;;;;;4.40;3.10;;;25.20;99.90;;;;;;5035377;28;20520;-53
2023/05/18 08:43:10;;;;;;;4.78;3.17;;;25.20;99.90;;;;;;5035094;28;20010;-53
2023/05/18 08:45:46;;;;;;;4.40;2.97;;;25.20;99.90;;;;;;5035114;28;20025;-52
2023/05/18 08:48:15;;;;;;;4.40;3.05;;;25.20;99.90;;;;;;5035100;28;20079;-53
2023/05/18 08:50:43;;;;;;;5.40;3.38;;;25.20;99.90;;;;;;5033352;28;20130;-52
2023/05/18 08:53:09;;;;;;;;;;;25.20;99.90;;;;;;5035354;28;20040;-52
2023/05/18 08:55:36;;;;;;;4.70;3.63;;;25.30;99.90;;;;;;5034564;28;19905;-52
2023/05/18 08:58:08;;;;;;;4.25;3.40;;;25.20;99.90;;;;;;5034906;28;20049;-53
2023/05/18 09:00:34;;;;;;;5.03;3.72;;;25.20;99.90;;;;;;5034492;28;20056;-54
2023/05/18 09:03:02;;;;;;;4.20;3.58;;;25.20;99.90;;;;;;5034922;28;20079;-54
2023/05/18 09:05:28;;;;;;;4.43;3.28;;;25.20;99.90;;;;;;5034555;28;20079;-53
2023/05/18 09:07:55;;;;;;;5.18;4.10;;;25.20;99.90;;;;;;5034404;28;20473;-53
2023/05/18 09:10:22;;;;;;;5.57;3.70;;;25.20;99.90;;;;;;5034635;28;20033;-53
2023/05/18 09:12:50;;;;;;;4.95;3.92;;;25.20;99.90;;;;;;5034594;28;20024;-54
2023/05/18 09:15:16;;;;;;;6.70;4.82;;;25.20;99.90;;;;;;5034534;28;20123;-53
2023/05/18 09:17:42;;;;;;;7.68;4.30;;;25.30;99.90;;;;;;5034528;28;20068;-55
2023/05/18 09:20:09;;;;;;;7.55;4.78;;;25.30;99.90;;;;;;5034362;28;20540;-55
2023/05/18 09:22:35;;;;;;;4.38;3.78;;;25.20;99.90;;;;;;5034229;28;20044;-55
2023/05/18 09:25:07;;;;;;;8.20;4.30;;;25.30;99.90;;;;;;5027829;28;20025;-54
2023/05/18 09:27:32;;;;;;;6.05;4.32;;;25.30;99.90;;;;;;5033568;28;20072;-55
2023/05/18 09:29:58;;;;;;;5.95;4.28;;;25.30;99.90;;;;;;5033853;28;20119;-55
2023/05/18 09:32:25;;;;;;;5.57;3.92;;;25.30;99.90;;;;;;5033986;28;20109;-55
2023/05/18 09:34:52;;;;;;;6.63;4.57;;;25.30;99.90;;;;;;5034194;28;20022;-55
2023/05/18 09:37:19;;;;;;;7.45;4.20;;;25.30;99.90;;;;;;5034657;28;20508;-55
2023/05/18 09:40:01;;;;;;;5.05;4.13;;;25.30;99.90;;;;;;5033837;28;20030;-54
2023/05/18 09:42:54;;;;;;;6.20;3.85;;;25.30;99.90;;;;;;5033828;28;20037;-55
2023/05/18 09:45:25;;;;;;;5.10;3.95;;;25.30;99.90;;;;;;5030824;28;20037;-55
2023/05/18 09:47:52;;;;;;;4.85;4.03;;;25.40;99.90;;;;;;5032600;28;20026;-55
2023/05/18 09:50:21;;;;;;;5.22;3.90;;;25.40;99.90;;;;;;5033734;28;20099;-54
2023/05/18 09:52:50;;;;;;;4.78;3.97;;;25.40;99.90;;;;;;5033743;28;20013;-55
2023/05/18 09:55:18;;;;;;;5.80;4.22;;;25.40;99.90;;;;;;5033669;28;20109;-54
2023/05/18 09:57:45;;;;;;;7.13;4.38;;;25.40;99.90;;;;;;5033734;28;20096;-54
2023/05/18 10:00:13;;;;;;;5.47;3.90;;;25.40;99.90;;;;;;5033566;28;20104;-54
2023/05/18 10:02:47;;;;;;;6.35;4.35;;;25.40;99.90;;;;;;5033583;28;20045;-56
2023/05/18 10:05:30;;;;;;;7.80;4.68;;;25.40;99.90;;;;;;5033524;28;20056;-56
2023/05/18 10:07:56;;;;;;;7.43;4.05;;;25.40;99.90;;;;;;5033244;28;20024;-56
2023/05/18 10:10:25;;;;;;;7.73;4.13;;;25.40;99.90;;;;;;5033328;28;20045;-55
2023/05/18 10:12:52;;;;;;;6.35;3.88;;;25.40;99.90;;;;;;5033285;28;20018;-55
2023/05/18 10:15:20;;;;;;;6.15;4.60;;;25.40;99.90;;;;;;5033182;28;20132;-55
2023/05/18 10:17:49;;;;;;;6.78;4.07;;;25.40;99.90;;;;;;5031832;28;20033;-55
2023/05/18 10:20:18;;;;;;;6.82;4.30;;;25.40;99.90;;;;;;5033282;28;20030;-55
2023/05/18 10:22:46;;;;;;;4.82;3.80;;;25.40;99.90;;;;;;5033089;28;20497;-55
2023/05/18 10:25:21;;;;;;;6.07;4.72;;;25.50;99.90;;;;;;5033234;28;20029;-56
2023/05/18 10:27:49;;;;;;;5.95;4.50;;;25.50;99.90;;;;;;5033041;28;20017;-55
2023/05/18 10:30:18;;;;;;;6.45;3.90;;;25.50;99.90;;;;;;5031828;28;20025;-55
2023/05/18 10:32:45;;;;;;;6.05;3.65;;;25.50;99.90;;;;;;5033023;28;20026;-55
2023/05/18 10:35:10;;;;;;;6.28;4.22;;;25.50;99.90;;;;;;5032955;28;20115;-54
2023/05/18 10:37:46;;;;;;;7.35;3.83;;;25.50;99.90;;;;;;5033199;28;20612;-55
2023/05/18 10:40:14;;;;;;;4.97;3.60;;;25.50;99.90;;;;;;5032365;28;20028;-54
2023/05/18 10:42:41;;;;;;;6.50;4.10;;;25.50;99.90;;;;;;5032860;28;20076;-53
2023/05/18 10:45:09;;;;;;;4.53;3.67;;;25.50;99.90;;;;;;5033026;28;20489;-57
2023/05/18 10:47:38;;;;;;;5.90;3.40;;;25.50;99.90;;;;;;5031658;28;20080;-56
2023/05/18 10:50:05;;;;;;;5.95;3.90;;;25.50;99.90;;;;;;5032792;28;20041;-54
2023/05/18 10:52:32;;;;;;;5.33;3.03;;;25.60;99.90;;;;;;5032975;28;20481;-55
2023/05/18 10:55:03;;;;;;;6.13;4.35;;;25.50;99.90;;;;;;5031693;28;20071;-56
2023/05/18 10:57:45;;;;;;;6.45;3.90;;;25.60;99.90;;;;;;5031346;28;20028;-55
2023/05/18 11:00:12;;;;;;;6.88;5.07;;;25.60;99.90;;;;;;5020934;28;20100;-55
2023/05/18 11:02:41;;;;;;;6.40;3.83;;;25.60;99.90;;;;;;5032529;28;20034;-55
2023/05/18 11:05:08;;;;;;;7.68;4.25;;;25.60;99.90;;;;;;5032726;28;20032;-55
2023/05/18 11:07:35;;;;;;;7.00;3.95;;;25.60;99.90;;;;;;5031223;28;20025;-55
2023/05/18 11:10:02;;;;;;;5.97;3.80;;;25.60;99.90;;;;;;5032676;28;20033;-55
2023/05/18 11:12:31;;;;;;;7.18;3.90;;;25.60;99.90;;;;;;5032883;28;20430;-55
2023/05/18 11:14:58;;;;;;;4.57;3.90;;;25.60;99.90;;;;;;5032714;28;20549;-55
2023/05/18 11:17:25;;;;;;;7.20;3.95;;;25.60;99.90;;;;;;5032719;28;20057;-55
2023/05/18 11:20:06;;;;;;;5.68;4.10;;;25.60;99.90;;;;;;5032309;28;20018;-56
2023/05/18 11:22:52;;;;;;;7.88;4.20;;;25.60;99.90;;;;;;5032715;28;20030;-55
2023/05/18 11:25:27;;;;;;;5.15;4.05;;;25.60;99.90;;;;;;5021541;28;20366;-55
2023/05/18 11:28:01;;;;;;;5.35;3.67;;;25.70;99.90;;;;;;5032565;28;20017;-56
2023/05/18 11:30:27;;;;;;;4.72;3.17;;;25.70;99.90;;;;;;5032599;28;20397;-55
2023/05/18 11:33:07;;;;;;;6.25;3.65;;;25.70;99.90;;;;;;5032288;28;20100;-55
2023/05/18 11:35:36;;;;;;;10.68;4.18;;;25.70;99.90;;;;;;5032281;28;20061;-55
2023/05/18 11:38:07;;;;;;;5.15;3.67;;;25.70;99.90;;;;;;5032491;28;20022;-55
2023/05/18 11:40:50;;;;;;;6.50;3.58;;;25.70;99.90;;;;;;5032502;28;20021;-56
2023/05/18 11:43:23;;;;;;;4.53;2.97;;;25.70;99.90;;;;;;5018131;28;20025;-55
2023/05/18 11:45:56;;;;;;;6.00;3.40;;;25.70;99.90;;;;;;5032529;28;20026;-56
2023/05/18 11:48:26;;;;;;;9.60;4.30;;;25.70;99.90;;;;;;5032392;28;20025;-55
2023/05/18 11:50:53;;;;;;;5.90;3.42;;;25.70;99.90;;;;;;5032352;28;20094;-55
2023/05/18 11:53:23;;;;;;;5.70;3.25;;;25.70;99.90;;;;;;5036076;28;20381;-55
2023/05/18 11:55:53;;;;;;;6.65;3.30;;;25.70;99.90;;;;;;5035615;28;20029;-55
2023/05/18 11:58:20;;;;;;;8.65;3.58;;;25.70;99.90;;;;;;5036134;28;20036;-55
2023/05/18 12:00:47;;;;;;;8.07;3.25;;;25.80;99.90;;;;;;5034091;28;20054;-55
2023/05/18 12:03:14;;;;;;;6.00;3.65;;;25.80;99.90;;;;;;5035847;28;20108;-55
2023/05/18 12:05:48;;;;;;;5.43;3.28;;;25.80;99.90;;;;;;5035885;28;20032;-56
2023/05/18 12:08:20;;;;;;;6.18;3.65;;;25.80;99.90;;;;;;5035793;28;20477;-55
2023/05/18 12:10:47;;;;;;;5.70;3.05;;;25.80;99.90;;;;;;5035451;28;20037;-55
2023/05/18 12:13:16;;;;;;;5.57;3.33;;;25.80;99.90;;;;;;5036209;28;20075;-55
2023/05/18 12:15:43;;;;;;;5.90;3.30;;;25.80;99.90;;;;;;5035597;28;20029;-56
2023/05/18 12:18:10;;;;;;;6.87;3.30;;;25.80;99.90;;;;;;5035188;28;20017;-55
2023/05/18 12:20:39;;;;;;;7.70;4.43;;;25.80;99.90;;;;;;5034106;28;20271;-56
2023/05/18 12:23:04;;;;;;;4.65;3.03;;;25.80;99.90;;;;;;5035230;28;20024;-55
2023/05/18 12:25:30;;;;;;;5.53;3.50;;;25.80;99.90;;;;;;5035177;28;20478;-55
2023/05/18 12:27:56;;;;;;;5.82;2.92;;;25.80;99.90;;;;;;5035087;28;20034;-55
2023/05/18 12:30:25;;;;;;;4.85;3.13;;;25.80;99.90;;;;;;5035344;28;20041;-56
2023/05/18 12:32:55;;;;;;;8.15;3.58;;;25.80;99.90;;;;;;5035220;28;20027;-56
2023/05/18 12:35:26;;;;;;;5.20;3.30;;;25.80;99.90;;;;;;5035501;28;20447;-55
2023/05/18 12:37:56;;;;;;;4.68;2.80;;;25.80;99.90;;;;;;5035179;28;20026;-57
2023/05/18 12:40:22;;;;;;;4.55;2.72;;;25.80;99.90;;;;;;5034790;28;20056;-55
2023/05/18 12:42:59;;;;;;;7.50;2.97;;;25.80;99.90;;;;;;5035048;28;20021;-55
2023/05/18 12:45:26;;;;;;;4.65;3.25;;;25.80;99.90;;;;;;5035241;28;20097;-55
2023/05/18 12:47:56;;;;;;;;;;;25.80;99.90;;;;;;5035454;28;20028;-55
2023/05/18 12:50:24;;;;;;;4.30;3.00;;;25.80;99.90;;;;;;5035063;28;19920;-55
2023/05/18 12:52:50;;;;;;;5.03;3.33;;;25.80;99.90;;;;;;5035075;28;20048;-56